Time;durP1;ratioP1;P1;durP2;ratioP2;P2;SDS_P1;SDS_P2;PMS_P1;PMS_P2;Temp;Humidity;BMP_temperature;BMP_pressure;BME280_temperature;BME280_humidity;BME280_pressure;Samples;Min_cycle;Max_cycle;Signal;HPM_P1;HPM_P2
2022/05/04 00:01:55;;;;;;;15.05;3.80;;;8.90;99.90;;;;;;5096104;28;20051;-62
2022/05/04 00:04:21;;;;;;;12.60;4.03;;;8.90;99.90;;;;;;5106415;28;20044;-62
2022/05/04 00:06:47;;;;;;;11.43;3.03;;;9.00;99.90;;;;;;5124848;28;20048;-63
2022/05/04 00:09:12;;;;;;;9.02;3.15;;;9.00;99.90;;;;;;5124978;28;20039;-63
2022/05/04 00:11:40;;;;;;;9.27;3.38;;;9.10;99.90;;;;;;5124948;28;20112;-63
2022/05/04 00:14:06;;;;;;;10.48;3.53;;;9.40;99.90;;;;;;5125110;28;20475;-63
2022/05/04 00:16:31;;;;;;;12.63;3.35;;;9.10;99.90;;;;;;5126048;28;20054;-63
2022/05/04 00:18:57;;;;;;;10.23;3.90;;;9.10;99.90;;;;;;5107569;28;20051;-62
2022/05/04 00:21:23;;;;;;;10.55;3.17;;;9.00;99.90;;;;;;5121818;28;20050;-63
2022/05/04 00:23:48;;;;;;;11.25;3.15;;;9.00;99.90;;;;;;5104182;28;20044;-63
2022/05/04 00:26:14;;;;;;;10.50;3.40;;;9.00;99.90;;;;;;5103987;28;20133;-63
2022/05/04 00:28:40;;;;;;;7.80;3.05;;;9.00;99.90;;;;;;5087534;28;20052;-63
2022/05/04 00:31:05;;;;;;;14.38;4.32;;;9.00;99.90;;;;;;5109039;28;20070;-63
2022/05/04 00:33:31;;;;;;;6.68;3.33;;;9.00;99.90;;;;;;5107660;28;20048;-62
2022/05/04 00:35:57;;;;;;;18.38;4.30;;;8.90;99.90;;;;;;5126051;28;20079;-62
2022/05/04 00:38:22;;;;;;;10.10;3.75;;;9.10;99.90;;;;;;5124989;28;20130;-62
2022/05/04 00:40:48;;;;;;;11.30;3.50;;;9.00;99.90;;;;;;5125930;28;20069;-62
2022/05/04 00:43:25;;;;;;;12.82;3.92;;;9.10;99.90;;;;;;5124752;28;20071;-62
2022/05/04 00:45:51;;;;;;;13.50;3.92;;;9.10;99.90;;;;;;5108489;28;20043;-62
2022/05/04 00:48:17;;;;;;;12.70;3.70;;;9.00;99.90;;;;;;5103769;28;20051;-63
2022/05/04 00:50:44;;;;;;;11.65;3.88;;;9.00;99.90;;;;;;5103984;28;20494;-63
2022/05/04 00:53:11;;;;;;;9.23;3.55;;;9.10;99.90;;;;;;5104925;28;20051;-63
2022/05/04 00:55:36;;;;;;;12.02;4.13;;;9.00;99.90;;;;;;5104855;28;20048;-63
2022/05/04 01:00:48;;;;;;;14.18;3.75;;;8.90;99.90;;;;;;5105814;28;20112;-63
2022/05/04 01:03:14;;;;;;;11.68;3.80;;;8.90;99.90;;;;;;5125266;28;20066;-63
2022/05/04 01:05:41;;;;;;;12.23;3.70;;;8.80;99.90;;;;;;5124511;28;20047;-63
2022/05/04 01:08:07;;;;;;;8.70;3.60;;;8.90;99.90;;;;;;5125793;28;20048;-63
2022/05/04 01:10:33;;;;;;;11.63;3.60;;;8.80;99.90;;;;;;5124492;28;20086;-63
2022/05/04 01:12:58;;;;;;;13.40;3.83;;;8.80;99.90;;;;;;5106748;28;20044;-63
2022/05/04 01:15:24;;;;;;;13.90;3.75;;;8.90;99.90;;;;;;5125165;28;20122;-63
2022/05/04 01:17:51;;;;;;;12.50;3.97;;;8.80;99.90;;;;;;5118259;28;20075;-63
2022/05/04 01:20:17;;;;;;;10.60;3.42;;;8.90;99.90;;;;;;5103480;28;20073;-63
2022/05/04 01:22:43;;;;;;;11.20;3.50;;;8.80;99.90;;;;;;5119009;28;20062;-63
2022/05/04 01:25:11;;;;;;;13.93;3.78;;;8.80;99.90;;;;;;5125446;28;20046;-63
2022/05/04 01:27:37;;;;;;;11.13;3.58;;;8.70;99.90;;;;;;5125589;28;20040;-63
2022/05/04 01:30:04;;;;;;;11.85;4.20;;;8.80;99.90;;;;;;5124031;28;20062;-63
2022/05/04 01:32:29;;;;;;;10.85;3.85;;;8.70;99.90;;;;;;5109144;28;20575;-63
2022/05/04 01:34:55;;;;;;;10.02;4.05;;;8.80;99.90;;;;;;5123389;28;20101;-63
2022/05/04 01:37:21;;;;;;;9.43;3.80;;;8.80;99.90;;;;;;5123774;28;20483;-62
2022/05/04 01:39:46;;;;;;;18.58;4.13;;;8.90;99.90;;;;;;5124210;28;20044;-63
2022/05/04 01:42:16;;;;;;;13.27;4.25;;;8.70;99.90;;;;;;5123345;28;20395;-63
2022/05/04 01:44:46;;;;;;;14.18;3.92;;;8.80;99.90;;;;;;5123492;28;20051;-63
2022/05/04 01:47:12;;;;;;;12.35;4.10;;;8.60;99.90;;;;;;5123913;28;20132;-63
2022/05/04 01:49:38;;;;;;;11.98;3.50;;;8.60;99.90;;;;;;5128233;28;20054;-63
2022/05/04 01:52:05;;;;;;;12.48;3.95;;;8.60;99.90;;;;;;5127776;28;20407;-63
2022/05/04 01:54:31;;;;;;;11.15;3.65;;;8.60;99.90;;;;;;5127745;28;20082;-63
2022/05/04 01:56:56;;;;;;;14.38;4.03;;;8.70;99.90;;;;;;5127785;28;20051;-63
2022/05/04 01:59:22;;;;;;;13.13;3.80;;;8.60;99.90;;;;;;5128843;28;20074;-63
2022/05/04 02:01:48;;;;;;;9.35;3.53;;;8.70;99.90;;;;;;5127582;28;20043;-63
2022/05/04 02:04:14;;;;;;;11.57;3.80;;;8.70;99.90;;;;;;5128388;28;20051;-63
2022/05/04 02:06:41;;;;;;;11.23;4.10;;;8.60;99.90;;;;;;5129035;28;20066;-63
2022/05/04 02:09:06;;;;;;;10.07;3.38;;;8.40;99.90;;;;;;5128008;28;20051;-63
2022/05/04 02:11:33;;;;;;;7.75;3.40;;;8.50;99.90;;;;;;5128183;28;20043;-63
2022/05/04 02:13:59;;;;;;;10.55;4.05;;;8.40;99.90;;;;;;5127638;28;20100;-63
2022/05/04 02:16:25;;;;;;;11.32;3.78;;;8.30;99.90;;;;;;5127819;28;20054;-63
2022/05/04 02:18:51;;;;;;;15.70;3.33;;;8.20;99.90;;;;;;5113385;28;20083;-63
2022/05/04 02:21:16;;;;;;;10.23;3.92;;;8.10;99.90;;;;;;5110510;28;20468;-63
2022/05/04 02:23:42;;;;;;;12.73;3.67;;;8.10;99.90;;;;;;5127470;28;20090;-63
2022/05/04 02:26:08;;;;;;;12.05;4.47;;;8.20;99.90;;;;;;5128816;28;20063;-63
2022/05/04 02:28:34;;;;;;;9.77;3.50;;;8.20;99.90;;;;;;5127530;28;20066;-63
2022/05/04 02:31:00;;;;;;;12.77;3.88;;;8.20;99.90;;;;;;5123676;28;20043;-63
2022/05/04 02:33:26;;;;;;;10.98;3.85;;;8.20;99.90;;;;;;5116504;28;20047;-63
2022/05/04 02:38:35;;;;;;;11.23;3.80;;;8.30;99.90;;;;;;5112154;28;20132;-63
2022/05/04 02:41:01;;;;;;;14.15;3.75;;;8.40;99.90;;;;;;5127030;28;20047;-63
2022/05/04 02:43:28;;;;;;;11.38;3.65;;;8.40;99.90;;;;;;5126326;28;20135;-63
2022/05/04 02:45:54;;;;;;;11.10;3.63;;;8.50;99.90;;;;;;5110086;28;20083;-63
2022/05/04 02:48:20;;;;;;;7.85;3.13;;;8.40;99.90;;;;;;5106380;28;20051;-63
2022/05/04 02:50:46;;;;;;;9.73;3.42;;;8.50;99.90;;;;;;5106502;28;20079;-63
2022/05/04 02:53:12;;;;;;;10.52;4.05;;;8.20;99.90;;;;;;5106448;28;20044;-63
2022/05/04 02:55:38;;;;;;;11.48;3.72;;;8.30;99.90;;;;;;5105886;28;20540;-63
2022/05/04 02:58:04;;;;;;;8.80;3.13;;;8.30;99.90;;;;;;5107317;28;20043;-63
2022/05/04 03:00:30;;;;;;;10.65;3.40;;;8.20;99.90;;;;;;5106045;28;20052;-63
2022/05/04 03:02:56;;;;;;;11.80;3.45;;;8.10;99.90;;;;;;5126669;28;20368;-63
2022/05/04 03:05:22;;;;;;;14.07;3.33;;;8.10;99.90;;;;;;5127079;28;20032;-63
2022/05/04 03:07:48;;;;;;;10.07;3.80;;;8.10;99.90;;;;;;5126473;28;20062;-63
2022/05/04 03:10:14;;;;;;;11.43;3.63;;;8.20;99.90;;;;;;5126651;28;20088;-63
2022/05/04 03:12:40;;;;;;;9.27;3.47;;;8.10;99.90;;;;;;5126275;28;20044;-63
2022/05/04 03:15:06;;;;;;;9.88;3.42;;;8.20;99.90;;;;;;5126564;28;20047;-63
2022/05/04 03:17:33;;;;;;;10.98;3.80;;;8.20;99.90;;;;;;5106452;28;20093;-63
2022/05/04 03:20:00;;;;;;;11.80;3.67;;;8.20;99.90;;;;;;5106037;28;20511;-63
2022/05/04 03:22:26;;;;;;;11.45;3.40;;;8.10;99.90;;;;;;5119938;28;20072;-63
2022/05/04 03:24:52;;;;;;;9.88;3.85;;;8.10;99.90;;;;;;5108886;28;20047;-62
2022/05/04 03:27:18;;;;;;;12.30;5.25;;;8.00;99.90;;;;;;5126679;28;20212;-63
2022/05/04 03:29:43;;;;;;;12.23;3.92;;;7.90;99.90;;;;;;5126071;28;20051;-63
2022/05/04 03:32:10;;;;;;;10.88;3.72;;;8.00;99.90;;;;;;5112367;28;20063;-63
2022/05/04 03:34:36;;;;;;;11.18;3.95;;;7.80;99.90;;;;;;5124954;28;20048;-63
2022/05/04 03:37:02;;;;;;;11.57;3.92;;;7.80;99.90;;;;;;5125424;28;20040;-63
2022/05/04 03:39:28;;;;;;;11.57;4.32;;;7.90;99.90;;;;;;5125740;28;20445;-63
2022/05/04 03:41:53;;;;;;;13.55;4.20;;;8.00;99.90;;;;;;5125053;28;20054;-63
2022/05/04 03:44:19;;;;;;;11.80;4.10;;;7.90;99.90;;;;;;5122623;28;20055;-63
2022/05/04 03:46:47;;;;;;;11.98;3.92;;;7.90;99.90;;;;;;5105094;28;20044;-63
2022/05/04 03:49:15;;;;;;;12.15;4.13;;;7.80;99.90;;;;;;5104963;28;20205;-63
2022/05/04 03:51:41;;;;;;;12.48;4.22;;;7.80;99.90;;;;;;5105294;28;20036;-63
2022/05/04 03:54:07;;;;;;;9.55;4.20;;;7.90;99.90;;;;;;5105176;28;20593;-63
2022/05/04 03:56:34;;;;;;;10.82;3.97;;;7.80;99.90;;;;;;5106611;28;20168;-62
2022/05/04 03:59:00;;;;;;;8.82;4.18;;;8.00;99.90;;;;;;5106503;28;20055;-63
2022/05/04 04:01:26;;;;;;;16.23;4.57;;;8.00;99.90;;;;;;5113405;28;20040;-63
2022/05/04 04:03:52;;;;;;;14.70;4.60;;;8.00;99.90;;;;;;5125307;28;20054;-63
2022/05/04 04:06:18;;;;;;;10.27;4.20;;;8.10;99.90;;;;;;5124539;28;20072;-63
2022/05/04 04:08:43;;;;;;;9.90;3.88;;;8.00;99.90;;;;;;5126438;28;20130;-63
2022/05/04 04:11:10;;;;;;;12.00;4.35;;;8.00;99.90;;;;;;5124351;28;20044;-63
2022/05/04 04:13:37;;;;;;;13.52;4.40;;;7.90;99.90;;;;;;5124977;28;20050;-62
2022/05/04 04:16:03;;;;;;;12.70;4.57;;;7.90;99.90;;;;;;5124675;28;20039;-62
2022/05/04 04:18:29;;;;;;;9.35;4.65;;;7.80;99.90;;;;;;5113525;28;20046;-62
2022/05/04 04:23:40;;;;;;;11.20;4.32;;;7.90;99.90;;;;;;5124267;28;20051;-63
2022/05/04 04:26:07;;;;;;;10.32;4.13;;;7.90;99.90;;;;;;5124766;28;20505;-62
2022/05/04 04:28:34;;;;;;;11.75;4.25;;;7.90;99.90;;;;;;5124804;28;20047;-62
2022/05/04 04:31:01;;;;;;;13.70;4.28;;;7.90;99.90;;;;;;5104367;28;20369;-63
2022/05/04 04:33:28;;;;;;;11.57;4.30;;;7.90;99.90;;;;;;5114182;28;20047;-63
2022/05/04 04:35:58;;;;;;;10.07;5.03;;;7.90;99.90;;;;;;5124278;28;20055;-63
2022/05/04 04:38:24;;;;;;;13.70;4.30;;;8.00;99.90;;;;;;5124538;28;20052;-63
2022/05/04 04:40:50;;;;;;;10.90;3.92;;;8.10;99.90;;;;;;5107468;28;20057;-63
2022/05/04 04:43:16;;;;;;;9.02;4.95;;;8.10;99.90;;;;;;5125256;28;20047;-63
2022/05/04 04:45:44;;;;;;;14.82;5.53;;;8.10;99.90;;;;;;5125353;28;20130;-63
2022/05/04 04:48:10;;;;;;;17.77;4.38;;;8.10;99.90;;;;;;5107828;28;20042;-63
2022/05/04 04:50:36;;;;;;;15.27;4.85;;;8.10;99.90;;;;;;5141305;27;20050;-63
2022/05/04 04:53:02;;;;;;;11.75;4.75;;;8.00;99.90;;;;;;5123988;28;20043;-63
2022/05/04 04:55:28;;;;;;;15.35;5.07;;;8.10;99.90;;;;;;5140849;27;20054;-63
2022/05/04 04:57:54;;;;;;;10.85;4.10;;;8.10;99.90;;;;;;5124655;28;20039;-63
2022/05/04 05:00:20;;;;;;;12.90;4.55;;;8.20;99.90;;;;;;5125415;28;20177;-63
2022/05/04 05:02:46;;;;;;;8.20;3.45;;;8.20;99.90;;;;;;5124064;28;20054;-63
2022/05/04 05:05:12;;;;;;;13.10;4.85;;;8.20;99.90;;;;;;5121298;28;20043;-63
2022/05/04 05:07:38;;;;;;;11.95;4.10;;;8.30;99.90;;;;;;5122991;28;20062;-63
2022/05/04 05:10:05;;;;;;;9.93;4.18;;;8.30;99.90;;;;;;5125419;28;20040;-63
2022/05/04 05:12:32;;;;;;;10.63;3.67;;;8.20;99.90;;;;;;5125303;28;20035;-63
2022/05/04 05:17:42;;;;;;;10.00;3.70;;;8.20;99.90;;;;;;5122460;28;20083;-63
2022/05/04 05:20:09;;;;;;;15.10;4.88;;;8.30;99.90;;;;;;5103542;28;20460;-63
2022/05/04 05:22:34;;;;;;;9.77;4.03;;;8.40;99.90;;;;;;5117379;28;20047;-63
2022/05/04 05:25:00;;;;;;;11.05;4.00;;;8.40;99.90;;;;;;5123771;28;20050;-63
2022/05/04 05:27:29;;;;;;;9.73;3.55;;;8.40;99.90;;;;;;5123688;28;20071;-63
2022/05/04 05:29:55;;;;;;;13.27;3.95;;;8.50;99.90;;;;;;5123661;28;20046;-63
2022/05/04 05:32:20;;;;;;;13.35;4.97;;;8.30;99.90;;;;;;5121439;28;20047;-64
2022/05/04 05:34:46;;;;;;;14.38;4.43;;;8.30;99.90;;;;;;5053538;28;20123;-66
2022/05/04 05:37:13;;;;;;;9.63;4.10;;;8.40;99.90;;;;;;5086642;28;20052;-66
2022/05/04 05:39:40;;;;;;;14.45;4.80;;;8.30;99.90;;;;;;5085358;28;20070;-67
2022/05/04 05:42:07;;;;;;;24.77;6.03;;;8.40;99.90;;;;;;5074640;28;20044;-64
2022/05/04 05:44:32;;;;;;;14.35;4.32;;;8.30;99.90;;;;;;5115655;28;20048;-65
2022/05/04 05:46:59;;;;;;;14.48;4.40;;;8.40;99.90;;;;;;5076619;28;20135;-65
2022/05/04 05:49:25;;;;;;;10.07;4.32;;;8.60;99.90;;;;;;5079567;28;20048;-65
2022/05/04 05:51:51;;;;;;;15.43;5.15;;;8.50;99.90;;;;;;5104127;28;20084;-65
2022/05/04 05:54:17;;;;;;;11.10;4.10;;;8.60;99.90;;;;;;5090376;28;20052;-65
2022/05/04 05:56:43;;;;;;;11.38;4.03;;;8.50;99.90;;;;;;5085806;28;20120;-65
2022/05/04 05:59:08;;;;;;;9.93;4.10;;;8.70;99.90;;;;;;5078972;28;20055;-65
2022/05/04 06:01:34;;;;;;;12.32;4.28;;;8.70;99.90;;;;;;5076792;28;20584;-65
2022/05/04 06:04:00;;;;;;;10.38;4.18;;;8.70;99.90;;;;;;5099262;28;20061;-65
2022/05/04 06:06:26;;;;;;;7.60;3.50;;;8.90;99.90;;;;;;5087807;28;20077;-65
2022/05/04 06:08:51;;;;;;;11.45;4.03;;;8.90;99.90;;;;;;5095216;28;20090;-65
2022/05/04 06:11:17;;;;;;;11.82;4.18;;;8.90;99.90;;;;;;5095178;28;20052;-64
2022/05/04 06:13:43;;;;;;;12.60;3.72;;;9.00;99.90;;;;;;5091274;28;20051;-65
2022/05/04 06:16:08;;;;;;;9.13;3.47;;;8.90;99.90;;;;;;5115120;28;20039;-65
2022/05/04 06:18:34;;;;;;;12.38;3.45;;;8.70;99.90;;;;;;5081508;28;20048;-65
2022/05/04 06:21:00;;;;;;;9.10;3.83;;;8.80;99.90;;;;;;5113829;28;20039;-65
2022/05/04 06:23:26;;;;;;;9.50;3.53;;;9.00;99.90;;;;;;5106439;28;20042;-64
2022/05/04 06:25:51;;;;;;;10.38;4.53;;;9.00;99.90;;;;;;5114039;28;20045;-65
2022/05/04 06:28:17;;;;;;;9.80;3.90;;;9.10;99.90;;;;;;5084501;28;20339;-65
2022/05/04 06:36:11;;;;;;;43.13;5.57;;;9.10;99.90;;;;;;5106851;28;20079;-65
2022/05/04 06:38:37;;;;;;;10.60;3.78;;;9.30;99.90;;;;;;5111278;27;20043;-65
2022/05/04 06:41:05;;;;;;;15.63;4.68;;;9.10;99.90;;;;;;5120377;27;20047;-65
2022/05/04 06:43:32;;;;;;;9.80;3.60;;;9.20;99.90;;;;;;5078443;28;20083;-65
2022/05/04 06:45:58;;;;;;;8.07;3.47;;;9.30;99.90;;;;;;5116629;28;20040;-66
2022/05/04 06:48:24;;;;;;;12.30;4.55;;;9.30;99.90;;;;;;5093686;27;20279;-67
2022/05/04 06:50:50;;;;;;;9.27;3.15;;;9.50;99.90;;;;;;5135259;27;20039;-66
2022/05/04 06:53:16;;;;;;;7.00;3.45;;;9.60;99.90;;;;;;5092558;28;20044;-66
2022/05/04 06:55:41;;;;;;;6.88;3.65;;;9.30;99.90;;;;;;5128531;27;20047;-62
2022/05/04 06:58:07;;;;;;;9.30;3.38;;;9.40;99.90;;;;;;5101974;28;20053;-63
2022/05/04 07:00:33;;;;;;;13.68;3.90;;;9.50;99.90;;;;;;5111879;28;20366;-62
2022/05/04 07:03:00;;;;;;;12.50;3.30;;;9.50;99.90;;;;;;5111987;27;20039;-62
2022/05/04 07:05:25;;;;;;;8.15;3.28;;;9.60;99.90;;;;;;5107233;28;20105;-63
2022/05/04 07:07:52;;;;;;;8.80;3.22;;;9.70;99.90;;;;;;5091154;28;20048;-63
2022/05/04 07:10:18;;;;;;;11.07;3.72;;;9.50;99.90;;;;;;5098864;28;20048;-63
2022/05/04 07:12:44;;;;;;;8.15;3.38;;;9.60;99.90;;;;;;5091679;28;20051;-63
2022/05/04 07:15:10;;;;;;;7.40;3.38;;;9.80;99.90;;;;;;5098708;28;20115;-61
2022/05/04 07:17:36;;;;;;;7.95;3.33;;;9.90;99.90;;;;;;5091066;28;20481;-64
2022/05/04 07:20:03;;;;;;;10.38;3.10;;;10.10;99.90;;;;;;5111020;28;20251;-63
2022/05/04 07:22:28;;;;;;;9.73;3.30;;;10.10;99.90;;;;;;5101979;27;20043;-62
2022/05/04 07:24:54;;;;;;;9.30;3.38;;;10.20;99.90;;;;;;5115742;28;20089;-60
2022/05/04 07:27:20;;;;;;;8.90;3.45;;;10.20;99.90;;;;;;5132746;27;20073;-62
2022/05/04 07:29:46;;;;;;;8.27;3.58;;;10.00;99.90;;;;;;5114592;28;20059;-60
2022/05/04 07:32:13;;;;;;;6.35;3.42;;;9.80;99.90;;;;;;5120101;28;20051;-61
2022/05/04 07:34:40;;;;;;;8.52;3.53;;;9.80;99.90;;;;;;5082623;28;20219;-61
2022/05/04 07:37:06;;;;;;;8.85;3.63;;;9.90;99.90;;;;;;5114774;28;20059;-61
2022/05/04 07:42:26;;;;;;;10.00;4.18;;;9.80;99.90;;;;;;5120911;27;20035;-60
2022/05/04 07:45:02;;;;;;;9.05;4.43;;;9.70;99.90;;;;;;5105406;28;20504;-64
2022/05/04 07:47:30;;;;;;;8.63;3.90;;;9.90;99.90;;;;;;5117831;28;20495;-61
2022/05/04 07:49:56;;;;;;;8.57;4.63;;;9.90;99.90;;;;;;5124539;27;20540;-61
2022/05/04 07:52:22;;;;;;;9.80;4.65;;;9.90;99.90;;;;;;5118195;28;20116;-60
2022/05/04 07:54:48;;;;;;;10.18;3.92;;;10.00;99.90;;;;;;5108750;27;20059;-61
2022/05/04 07:57:14;;;;;;;9.25;4.00;;;10.20;99.90;;;;;;5119156;28;20040;-60
2022/05/04 07:59:40;;;;;;;6.68;4.22;;;10.10;99.90;;;;;;5125090;27;20054;-60
2022/05/04 08:04:51;;;;;;;7.78;3.70;;;10.00;99.90;;;;;;5110520;27;20042;-62
2022/05/04 08:07:17;;;;;;;8.13;3.75;;;10.10;99.90;;;;;;5118727;28;20423;-60
2022/05/04 08:09:44;;;;;;;11.95;4.85;;;10.10;99.90;;;;;;5122718;27;20296;-61
2022/05/04 08:12:12;;;;;;;8.45;3.95;;;10.10;99.90;;;;;;5116905;28;20068;-61
2022/05/04 08:14:41;;;;;;;8.00;3.67;;;10.20;99.90;;;;;;5100278;28;20046;-61
2022/05/04 08:17:07;;;;;;;9.32;4.03;;;10.10;99.90;;;;;;5113324;28;20039;-64
2022/05/04 08:19:33;;;;;;;9.48;4.15;;;10.20;99.90;;;;;;5121696;27;20250;-61
2022/05/04 08:21:59;;;;;;;7.72;3.92;;;10.10;99.90;;;;;;5111605;28;20036;-61
2022/05/04 08:24:26;;;;;;;8.57;4.50;;;10.10;99.90;;;;;;5099567;28;20447;-61
2022/05/04 08:26:51;;;;;;;13.07;4.38;;;10.00;99.90;;;;;;5102258;28;20044;-65
2022/05/04 08:29:17;;;;;;;9.77;4.68;;;10.00;99.90;;;;;;5094138;28;20047;-64
2022/05/04 08:31:43;;;;;;;7.72;4.03;;;9.90;99.90;;;;;;5122239;27;20062;-64
2022/05/04 08:34:09;;;;;;;9.27;4.35;;;10.00;99.90;;;;;;5085742;28;20044;-64
2022/05/04 08:36:37;;;;;;;7.40;4.20;;;10.10;99.90;;;;;;5121128;27;20051;-64
2022/05/04 08:39:07;;;;;;;11.18;3.88;;;10.30;99.90;;;;;;5094599;28;20056;-64
2022/05/04 08:41:36;;;;;;;10.07;4.05;;;10.50;99.90;;;;;;5103407;28;20048;-64
2022/05/04 08:44:03;;;;;;;11.00;4.03;;;10.70;99.90;;;;;;5112788;28;20509;-64
2022/05/04 08:46:32;;;;;;;10.95;3.92;;;10.80;99.90;;;;;;5079228;28;20123;-64
2022/05/04 08:48:58;;;;;;;7.90;4.13;;;10.80;99.90;;;;;;5108532;28;20326;-64
2022/05/04 08:51:24;;;;;;;8.40;4.05;;;10.90;99.90;;;;;;5087542;28;20134;-63
2022/05/04 08:53:50;;;;;;;12.13;3.38;;;10.90;99.90;;;;;;5095550;28;20083;-62
2022/05/04 08:56:17;;;;;;;12.52;4.72;;;11.20;99.90;;;;;;5102876;27;20119;-62
2022/05/04 08:58:43;;;;;;;9.07;3.88;;;11.30;99.90;;;;;;5114688;28;20067;-63
2022/05/04 09:01:08;;;;;;;12.60;3.58;;;11.40;99.90;;;;;;5099784;28;20040;-63
2022/05/04 09:03:34;;;;;;;12.35;3.58;;;11.50;99.90;;;;;;5099084;28;20082;-62
2022/05/04 09:06:00;;;;;;;10.75;3.63;;;11.50;99.90;;;;;;5108126;27;20506;-63
2022/05/04 09:08:26;;;;;;;9.95;4.05;;;11.50;99.90;;;;;;5128075;27;20078;-62
2022/05/04 09:10:52;;;;;;;10.27;3.70;;;11.50;99.90;;;;;;5088093;27;20126;-63
2022/05/04 09:13:18;;;;;;;8.90;3.63;;;11.30;99.90;;;;;;5097928;28;20067;-62
2022/05/04 09:15:44;;;;;;;8.40;3.50;;;11.40;99.90;;;;;;5123037;27;20123;-63
2022/05/04 09:18:16;;;;;;;8.25;3.70;;;11.40;99.90;;;;;;5115609;28;20104;-62
2022/05/04 09:20:55;;;;;;;10.90;4.18;;;11.60;99.90;;;;;;5088098;28;20043;-63
2022/05/04 09:23:31;;;;;;;8.30;3.40;;;11.80;99.90;;;;;;5099770;28;20467;-64
2022/05/04 09:26:07;;;;;;;10.60;3.83;;;11.80;99.90;;;;;;5103950;28;20047;-65
2022/05/04 09:28:34;;;;;;;10.23;3.33;;;11.90;99.90;;;;;;5084201;28;20140;-63
2022/05/04 09:31:05;;;;;;;10.02;4.38;;;11.90;99.90;;;;;;5104603;28;20055;-65
2022/05/04 09:33:34;;;;;;;11.63;4.43;;;11.90;99.90;;;;;;5089363;28;20043;-65
2022/05/04 09:36:03;;;;;;;9.43;4.00;;;11.70;99.90;;;;;;5115110;28;20036;-62
2022/05/04 09:46:51;;;;;;;6.68;3.17;;;11.70;99.90;;;;;;5100943;28;20134;-62
2022/05/04 09:49:19;;;;;;;8.80;3.95;;;11.90;99.90;;;;;;5085268;28;20039;-62
2022/05/04 09:51:50;;;;;;;10.10;3.65;;;12.10;99.90;;;;;;5066202;28;20051;-62
2022/05/04 09:54:17;;;;;;;9.48;3.83;;;12.10;99.90;;;;;;5082663;28;20554;-62
2022/05/04 09:57:03;;;;;;;10.57;3.85;;;12.10;99.90;;;;;;5084423;28;20048;-62
2022/05/04 09:59:31;;;;;;;8.57;3.15;;;12.10;99.90;;;;;;5093845;28;20704;-62
2022/05/04 10:02:02;;;;;;;10.38;4.00;;;12.20;99.90;;;;;;5106365;28;20051;-61
2022/05/04 10:04:28;;;;;;;8.93;4.07;;;12.30;99.90;;;;;;5114090;28;20044;-61
2022/05/04 10:06:55;;;;;;;10.90;3.85;;;12.40;99.90;;;;;;5101519;28;20047;-62
2022/05/04 10:09:22;;;;;;;8.00;3.25;;;12.20;99.90;;;;;;5094771;28;20094;-62
2022/05/04 10:11:57;;;;;;;13.60;3.80;;;12.50;99.90;;;;;;5106657;28;20551;-62
2022/05/04 10:14:23;;;;;;;9.55;3.55;;;12.60;99.90;;;;;;5083454;28;20048;-61
2022/05/04 10:16:59;;;;;;;8.10;4.47;;;12.50;99.90;;;;;;5087325;28;20032;-62
2022/05/04 10:19:39;;;;;;;9.95;3.65;;;12.50;99.90;;;;;;5084446;28;20052;-62
2022/05/04 10:22:08;;;;;;;;;;;12.70;99.90;;;;;;5094250;28;20048;-60
2022/05/04 10:24:35;;;;;;;9.85;3.92;;;12.60;99.90;;;;;;5099229;28;19985;-60
2022/05/04 10:27:22;;;;;;;13.00;4.90;;;12.80;99.90;;;;;;5106534;28;20113;-60
2022/05/04 10:32:47;;;;;;;7.93;3.65;;;12.80;99.90;;;;;;5098365;28;20040;-61
2022/05/04 10:35:42;;;;;;;12.00;4.47;;;13.00;99.90;;;;;;5094127;28;20437;-60
2022/05/04 10:38:16;;;;;;;9.93;3.60;;;13.10;99.90;;;;;;5107899;27;20052;-60
2022/05/04 10:40:50;;;;;;;9.40;3.83;;;13.20;99.90;;;;;;5107915;28;20051;-61
2022/05/04 10:43:37;;;;;;;13.05;4.25;;;13.20;99.90;;;;;;5098369;28;20039;-60
2022/05/04 10:46:24;;;;;;;7.85;3.83;;;13.40;99.90;;;;;;5107583;28;20063;-60
2022/05/04 10:48:55;;;;;;;10.38;4.43;;;13.40;99.90;;;;;;5086548;28;20160;-60
2022/05/04 10:51:24;;;;;;;7.95;3.83;;;13.30;99.90;;;;;;5129571;27;20048;-60
2022/05/04 10:53:53;;;;;;;11.53;4.07;;;13.10;99.90;;;;;;5086051;28;20043;-60
2022/05/04 10:56:24;;;;;;;8.82;3.80;;;13.10;99.90;;;;;;5114011;28;20920;-60
2022/05/04 10:58:50;;;;;;;9.63;3.92;;;12.90;99.90;;;;;;5087723;28;20594;-60
2022/05/04 11:01:30;;;;;;;9.30;3.20;;;12.90;99.90;;;;;;5128259;27;20329;-60
2022/05/04 11:03:57;;;;;;;9.82;3.83;;;12.90;99.90;;;;;;5086634;28;20050;-60
2022/05/04 11:06:48;;;;;;;9.95;3.72;;;13.10;99.90;;;;;;5112686;28;20043;-60
2022/05/04 11:09:19;;;;;;;10.15;4.53;;;13.20;99.90;;;;;;5104202;28;20102;-60
2022/05/04 11:11:47;;;;;;;7.38;3.78;;;13.40;99.90;;;;;;5116470;28;20093;-61
2022/05/04 11:14:15;;;;;;;9.75;3.47;;;13.50;99.90;;;;;;5093070;27;20341;-60
2022/05/04 11:16:43;;;;;;;8.48;3.70;;;13.60;99.90;;;;;;5119410;27;20389;-61
2022/05/04 11:19:11;;;;;;;6.53;3.58;;;13.70;99.90;;;;;;5109997;27;20059;-60
2022/05/04 11:21:37;;;;;;;8.75;3.50;;;13.90;99.90;;;;;;5130820;27;20104;-60
2022/05/04 11:24:06;;;;;;;8.32;3.90;;;13.90;99.90;;;;;;5100789;28;20090;-60
2022/05/04 11:26:35;;;;;;;10.48;4.55;;;13.90;99.90;;;;;;5096931;28;20088;-60
2022/05/04 11:29:06;;;;;;;11.68;3.85;;;13.70;99.90;;;;;;5089864;28;20051;-61
2022/05/04 11:31:32;;;;;;;10.02;4.07;;;13.40;99.90;;;;;;5096252;28;20702;-60
2022/05/04 11:33:58;;;;;;;11.23;4.63;;;13.30;99.90;;;;;;5087284;27;20287;-61
2022/05/04 11:36:23;;;;;;;8.75;4.10;;;13.10;99.90;;;;;;5087576;28;20090;-60
2022/05/04 11:38:50;;;;;;;6.85;3.60;;;13.10;99.90;;;;;;5115606;27;20047;-61
2022/05/04 11:41:17;;;;;;;16.42;4.05;;;13.20;99.90;;;;;;5116279;28;20057;-61
2022/05/04 11:43:43;;;;;;;9.35;3.30;;;13.40;99.90;;;;;;5109609;27;20053;-61
2022/05/04 11:46:11;;;;;;;11.57;4.22;;;13.60;99.90;;;;;;5115494;28;20134;-60
2022/05/04 11:48:42;;;;;;;10.40;3.83;;;13.90;99.90;;;;;;5104933;28;20063;-60
2022/05/04 11:51:12;;;;;;;10.63;3.45;;;14.00;99.90;;;;;;5095992;28;20048;-60
2022/05/04 11:53:39;;;;;;;9.77;4.05;;;14.10;99.90;;;;;;5082546;28;20044;-60
2022/05/04 11:56:06;;;;;;;10.95;3.90;;;14.40;99.90;;;;;;5096704;28;20044;-60
2022/05/04 11:58:34;;;;;;;12.85;3.88;;;14.50;99.90;;;;;;5083454;28;20341;-60
2022/05/04 12:01:02;;;;;;;10.50;4.03;;;14.70;99.90;;;;;;5084093;28;20451;-60
2022/05/04 12:03:30;;;;;;;11.68;3.97;;;14.70;99.90;;;;;;5083899;28;20044;-60
2022/05/04 12:05:57;;;;;;;7.70;3.38;;;14.80;99.90;;;;;;5083719;28;20113;-61
2022/05/04 12:08:24;;;;;;;10.80;3.42;;;14.70;99.90;;;;;;5085934;28;20431;-61
2022/05/04 12:10:50;;;;;;;8.25;4.60;;;14.80;99.90;;;;;;5081343;28;20377;-61
2022/05/04 12:13:24;;;;;;;11.75;5.65;;;14.70;99.90;;;;;;5085020;28;20082;-61
2022/05/04 12:15:54;;;;;;;10.88;3.88;;;14.50;99.50;;;;;;5080563;28;20076;-60
2022/05/04 12:18:21;;;;;;;9.13;4.43;;;14.30;99.90;;;;;;5095789;28;20059;-60
2022/05/04 12:20:47;;;;;;;9.10;3.90;;;14.20;99.90;;;;;;5085669;28;20424;-60
2022/05/04 12:23:14;;;;;;;9.63;4.10;;;14.10;99.90;;;;;;5106511;28;20473;-61
2022/05/04 12:25:41;;;;;;;11.10;3.90;;;14.30;99.90;;;;;;5099195;28;20123;-60
2022/05/04 12:28:08;;;;;;;9.77;3.83;;;14.40;99.90;;;;;;5116460;28;20389;-60
2022/05/04 12:33:29;;;;;;;9.48;4.47;;;14.90;99.90;;;;;;5100894;28;20056;-61
2022/05/04 12:36:05;;;;;;;6.80;4.10;;;15.00;99.90;;;;;;5088107;28;20063;-60
2022/05/04 12:38:33;;;;;;;9.95;3.90;;;15.40;99.90;;;;;;5101932;28;20054;-61
2022/05/04 12:41:01;;;;;;;9.45;4.20;;;15.40;99.90;;;;;;5078438;28;20052;-61
2022/05/04 12:43:35;;;;;;;13.32;4.43;;;15.40;99.50;;;;;;5086697;28;20123;-60
2022/05/04 12:46:02;;;;;;;7.75;4.38;;;15.40;99.20;;;;;;5077909;28;20052;-60
2022/05/04 12:48:28;;;;;;;9.05;4.22;;;15.30;99.20;;;;;;5105222;28;20039;-60
2022/05/04 12:50:56;;;;;;;11.32;3.97;;;15.50;99.30;;;;;;5103765;28;20370;-61
2022/05/04 12:53:24;;;;;;;10.82;4.82;;;15.40;99.80;;;;;;5097765;28;20058;-60
2022/05/04 12:58:35;;;;;;;7.10;3.97;;;15.30;97.70;;;;;;5112496;28;20074;-61
2022/05/04 13:01:01;;;;;;;9.32;4.05;;;15.30;98.60;;;;;;5114324;28;20059;-61
2022/05/04 13:03:27;;;;;;;8.15;3.92;;;15.40;98.50;;;;;;5116828;28;20051;-60
2022/05/04 13:05:53;;;;;;;8.80;4.25;;;15.40;99.40;;;;;;5105134;28;20602;-61
2022/05/04 13:08:19;;;;;;;7.38;3.60;;;15.80;98.60;;;;;;5116571;28;20051;-60
2022/05/04 13:10:47;;;;;;;10.73;4.00;;;15.70;97.80;;;;;;5104910;28;20595;-61
2022/05/04 13:13:14;;;;;;;12.60;4.63;;;15.90;97.20;;;;;;5097592;28;20047;-61
2022/05/04 13:15:39;;;;;;;8.10;3.90;;;15.80;97.80;;;;;;5087146;28;20706;-60
2022/05/04 13:18:05;;;;;;;10.48;4.30;;;16.10;97.80;;;;;;5115732;28;20047;-60
2022/05/04 13:20:31;;;;;;;12.02;4.75;;;16.20;97.10;;;;;;5081846;28;20053;-60
2022/05/04 13:22:57;;;;;;;8.27;3.83;;;16.40;98.30;;;;;;5099055;28;20043;-61
2022/05/04 13:25:22;;;;;;;8.52;3.78;;;16.60;98.00;;;;;;5076260;28;20056;-61
2022/05/04 13:27:48;;;;;;;8.68;4.18;;;16.80;99.00;;;;;;5061557;28;20134;-61